Time;durP1;ratioP1;P1;durP2;ratioP2;P2;SDS_P1;SDS_P2;PMS_P1;PMS_P2;Temp;Humidity;BMP_temperature;BMP_pressure;BME280_temperature;BME280_humidity;BME280_pressure;Samples;Min_cycle;Max_cycle;Signal;HPM_P1;HPM_P2
2022/07/25 00:00:50;;;;;;;8.43;6.28;;;;;;;24.55;45.30;99462.47;12211257;19;20003;-85
2022/07/25 00:04:52;;;;;;;7.82;5.50;;;;;;;24.54;44.81;99469.31;12204165;19;20754;-86
2022/07/25 00:08:54;;;;;;;7.93;6.15;;;;;;;24.46;45.10;99455.34;12191332;19;20493;-85
2022/07/25 00:12:57;;;;;;;10.68;8.90;;;;;;;24.28;45.74;99449.88;12211699;19;20034;-86
2022/07/25 00:17:04;;;;;;;12.27;7.87;;;;;;;24.15;46.02;99447.41;12215796;19;20015;-86
2022/07/25 00:21:07;;;;;;;10.32;7.63;;;;;;;23.99;46.38;99448.06;12184572;19;20010;-87
2022/07/25 00:25:15;;;;;;;11.85;7.47;;;;;;;23.82;46.98;99448.25;12203545;19;20014;-87
2022/07/25 00:29:18;;;;;;;10.00;6.75;;;;;;;23.65;47.51;99450.06;12212990;19;20010;-87
2022/07/25 00:33:28;;;;;;;7.55;6.70;;;;;;;23.50;48.66;99444.25;12196723;19;20006;-86
2022/07/25 00:37:30;;;;;;;8.63;6.50;;;;;;;23.35;49.08;99438.13;12205694;19;20011;-86
2022/07/25 00:41:32;;;;;;;9.77;6.83;;;;;;;23.26;49.80;99433.72;12217464;19;20482;-86
2022/07/25 00:45:33;;;;;;;8.07;6.55;;;;;;;23.13;49.85;99430.03;12193771;19;20017;-86
2022/07/25 00:49:35;;;;;;;8.10;6.23;;;;;;;23.03;50.46;99422.84;12211272;19;20019;-86
2022/07/25 00:53:38;;;;;;;8.63;6.97;;;;;;;22.96;50.88;99423.41;12202433;19;20007;-86
2022/07/25 00:57:40;;;;;;;;;;;;;;;22.84;51.19;99414.00;12187665;19;20034;-87
2022/07/25 01:01:44;;;;;;;8.67;6.53;;;;;;;22.74;50.55;99410.44;12214028;19;19939;-87
2022/07/25 01:05:46;;;;;;;8.07;6.28;;;;;;;22.64;51.04;99405.25;12201558;19;20002;-86
2022/07/25 01:09:54;;;;;;;8.82;6.32;;;;;;;22.57;51.48;99404.94;12177228;19;20489;-87
2022/07/25 01:13:56;;;;;;;8.32;6.53;;;;;;;22.51;52.26;99393.06;12210035;19;20007;-85
2022/07/25 01:17:58;;;;;;;9.43;6.57;;;;;;;22.39;52.86;99393.00;12180828;19;20022;-86
2022/07/25 01:22:00;;;;;;;9.70;6.80;;;;;;;22.37;53.81;99386.06;12199561;19;20105;-87
2022/07/25 01:26:03;;;;;;;;;;;;;;;22.33;54.39;99376.69;12204964;19;20015;-86
2022/07/25 01:30:07;;;;;;;8.60;6.88;;;;;;;22.29;54.82;99379.34;12187346;19;20268;-86
2022/07/25 01:34:19;;;;;;;9.48;6.90;;;;;;;22.25;55.55;99370.78;12202312;19;20601;-88
2022/07/25 01:38:21;;;;;;;9.00;6.53;;;;;;;22.20;55.06;99368.16;12207004;19;20010;-86
2022/07/25 01:42:23;;;;;;;9.68;6.63;;;;;;;22.18;55.02;99372.47;12177816;19;20043;-86
2022/07/25 01:46:24;;;;;;;8.20;6.73;;;;;;;22.13;55.25;99367.00;12197337;19;20010;-86
2022/07/25 01:50:28;;;;;;;9.43;6.55;;;;;;;22.11;56.02;99360.94;12202194;19;20417;-86
2022/07/25 01:54:31;;;;;;;9.02;6.95;;;;;;;22.07;56.28;99367.22;12174879;19;20010;-87
2022/07/25 01:58:32;;;;;;;10.18;7.07;;;;;;;22.08;55.70;99354.84;12190254;19;20007;-86
2022/07/25 02:02:34;;;;;;;9.50;6.80;;;;;;;22.11;55.64;99361.75;12209173;19;20078;-86
2022/07/25 02:06:40;;;;;;;7.57;6.70;;;;;;;22.12;55.72;99357.78;12180828;19;20378;-87
2022/07/25 02:10:43;;;;;;;9.38;6.53;;;;;;;22.14;55.37;99352.66;12191626;19;20015;-87
2022/07/25 02:14:46;;;;;;;9.15;6.93;;;;;;;22.14;54.93;99349.84;12198264;19;20006;-87
2022/07/25 02:18:56;;;;;;;9.27;7.57;;;;;;;22.15;55.12;99340.25;12171767;19;20010;-87
2022/07/25 02:22:58;;;;;;;9.13;6.82;;;;;;;22.20;54.92;99337.31;12201056;19;20074;-85
2022/07/25 02:27:00;;;;;;;9.38;7.35;;;;;;;22.24;54.68;99329.84;12172657;19;20028;-87
2022/07/25 02:31:01;;;;;;;11.50;7.10;;;;;;;22.24;54.92;99329.03;12191034;19;20014;-86
2022/07/25 02:35:05;;;;;;;8.80;6.72;;;;;;;22.20;55.30;99323.28;12201172;19;20014;-86
2022/07/25 02:39:13;;;;;;;9.18;6.90;;;;;;;22.14;55.80;99310.56;12170190;19;20392;-85
2022/07/25 02:43:16;;;;;;;9.80;7.38;;;;;;;22.13;56.11;99316.50;12196657;19;20023;-85
2022/07/25 02:47:17;;;;;;;;;;;;;;;22.11;56.13;99314.06;12202398;19;20032;-85
2022/07/25 02:51:19;;;;;;;13.43;8.23;;;;;;;22.04;56.45;99316.56;12179505;19;19922;-86
2022/07/25 02:55:21;;;;;;;11.10;8.10;;;;;;;21.94;57.20;99311.34;12184914;19;20017;-85
2022/07/25 02:59:23;;;;;;;12.43;7.50;;;;;;;21.80;57.84;99314.38;12195566;19;20010;-86
2022/07/25 03:03:35;;;;;;;9.85;7.60;;;;;;;21.74;58.17;99315.72;12170177;19;20007;-87
2022/07/25 03:07:37;;;;;;;9.98;7.13;;;;;;;21.67;58.48;99316.25;12211395;19;20521;-86
2022/07/25 03:11:39;;;;;;;9.88;7.18;;;;;;;21.64;58.26;99310.50;12191145;19;20010;-86
2022/07/25 03:15:41;;;;;;;10.30;7.65;;;;;;;21.61;58.04;99311.97;12175765;19;20125;-86
2022/07/25 03:19:43;;;;;;;10.37;7.57;;;;;;;21.61;58.14;99311.97;12193844;19;20011;-86
2022/07/25 03:23:45;;;;;;;8.95;6.55;;;;;;;21.58;58.34;99312.66;12193271;19;20011;-86
2022/07/25 03:27:53;;;;;;;10.13;7.25;;;;;;;21.58;58.14;99313.47;12161444;19;20810;-87
2022/07/25 03:31:54;;;;;;;9.52;7.35;;;;;;;21.57;58.27;99311.84;12196929;19;20006;-86
2022/07/25 03:35:56;;;;;;;8.83;6.90;;;;;;;21.55;58.79;99310.53;12164610;19;20078;-86
2022/07/25 03:44:36;;;;;;;10.50;7.40;;;;;;;21.49;58.56;99309.06;12185503;19;20015;-86
2022/07/25 03:48:40;;;;;;;10.02;7.78;;;;;;;21.47;58.60;99302.94;12164899;19;20095;-88
2022/07/25 03:52:54;;;;;;;10.57;7.53;;;;;;;21.41;59.34;99295.88;12197014;19;20011;-86
2022/07/25 03:57:02;;;;;;;10.82;7.68;;;;;;;21.36;59.09;99308.13;12159316;19;20130;-85
2022/07/25 04:01:04;;;;;;;8.73;6.77;;;;;;;21.30;59.73;99318.66;12196479;19;20010;-86
2022/07/25 04:05:11;;;;;;;10.60;7.72;;;;;;;21.22;60.47;99313.06;12195172;19;20019;-86
2022/07/25 04:09:14;;;;;;;10.03;7.40;;;;;;;21.14;60.56;99309.09;12182866;19;20027;-86
2022/07/25 04:13:17;;;;;;;9.75;8.00;;;;;;;21.06;61.24;99307.13;12204860;19;20007;-85
2022/07/25 04:17:19;;;;;;;14.43;8.85;;;;;;;20.99;61.49;99304.03;12194718;19;20008;-85
2022/07/25 04:22:10;;;;;;;9.93;7.70;;;;;;;20.95;62.71;99295.47;12215690;19;20010;-85
2022/07/25 04:26:18;;;;;;;15.57;8.73;;;;;;;20.93;62.97;99295.78;12229031;19;20367;-87
2022/07/25 04:30:38;;;;;;;10.45;7.95;;;;;;;20.91;63.88;99277.66;12181933;19;20358;-88
2022/07/25 04:34:39;;;;;;;11.10;8.73;;;;;;;20.88;63.45;99284.78;12196270;19;20023;-87
2022/07/25 04:38:44;;;;;;;11.23;8.98;;;;;;;20.88;64.10;99276.38;12197423;19;20021;-87
2022/07/25 04:42:56;;;;;;;11.40;8.32;;;;;;;20.90;64.34;99281.63;12179424;19;20006;-86
2022/07/25 04:46:58;;;;;;;11.95;8.10;;;;;;;20.88;64.22;99281.97;12201302;19;20461;-86
2022/07/25 04:51:07;;;;;;;11.40;8.90;;;;;;;20.91;64.43;99275.72;12180797;19;20006;-86
2022/07/25 04:55:15;;;;;;;10.95;8.32;;;;;;;20.94;64.36;99271.44;12245207;19;20011;-85
2022/07/25 04:59:17;;;;;;;14.50;8.63;;;;;;;20.98;64.61;99275.19;12224357;19;20074;-86
2022/07/25 05:03:21;;;;;;;12.02;8.68;;;;;;;20.97;64.94;99267.13;12186081;19;20021;-86
2022/07/25 05:07:23;;;;;;;11.20;8.30;;;;;;;21.02;65.39;99272.56;12207106;19;20023;-85
2022/07/25 05:11:27;;;;;;;10.32;8.43;;;;;;;21.01;65.66;99276.53;12204405;19;20367;-86
2022/07/25 05:15:28;;;;;;;14.32;8.98;;;;;;;21.01;65.40;99277.34;12179072;19;20019;-86
2022/07/25 05:19:31;;;;;;;10.82;8.75;;;;;;;21.07;65.28;99280.78;12216420;19;20014;-86
2022/07/25 05:23:34;;;;;;;15.40;8.48;;;;;;;21.11;65.23;99288.19;12212676;19;20063;-85
2022/07/25 05:27:44;;;;;;;15.15;9.18;;;;;;;21.14;65.89;99281.09;12174988;19;20013;-86
2022/07/25 05:31:46;;;;;;;14.60;9.10;;;;;;;21.18;66.10;99276.50;12202937;19;20088;-86
2022/07/25 05:36:12;;;;;;;10.27;8.13;;;;;;;21.21;66.74;99281.41;12176312;19;20252;-85
2022/07/25 05:40:14;;;;;;;15.57;9.98;;;;;;;21.24;66.40;99277.94;12202889;19;20407;-85
2022/07/25 05:44:16;;;;;;;13.27;9.65;;;;;;;21.32;66.01;99268.66;12202971;19;20090;-85
2022/07/25 05:48:39;;;;;;;14.23;9.25;;;;;;;21.41;67.04;99267.84;12177813;19;20032;-85
2022/07/25 05:52:42;;;;;;;14.30;10.05;;;;;;;21.51;66.06;99275.91;12207170;19;20011;-86
2022/07/25 05:56:43;;;;;;;14.43;10.25;;;;;;;21.61;65.66;99269.94;12192632;19;20453;-85
2022/07/25 06:00:45;;;;;;;15.90;10.35;;;;;;;21.72;65.80;99261.97;12176767;19;20010;-84
2022/07/25 06:04:47;;;;;;;14.77;10.13;;;;;;;21.85;65.72;99267.31;12200576;19;20010;-84
2022/07/25 06:08:48;;;;;;;13.48;10.38;;;;;;;21.99;65.03;99252.25;12191589;19;20006;-84
2022/07/25 06:12:52;;;;;;;13.77;10.07;;;;;;;22.17;64.46;99250.19;12173209;19;20007;-84
2022/07/25 06:16:54;;;;;;;12.50;9.23;;;;;;;22.34;64.02;99252.00;12196962;19;20003;-85
2022/07/25 06:20:56;;;;;;;15.52;10.43;;;;;;;22.45;63.63;99242.84;12181682;19;20043;-84
2022/07/25 06:25:02;;;;;;;13.55;9.55;;;;;;;22.66;63.07;99245.63;12194421;19;20011;-84
2022/07/25 06:29:11;;;;;;;15.73;10.93;;;;;;;22.88;62.29;99254.88;12198088;19;20026;-86
2022/07/25 06:38:56;;;;;;;15.88;10.00;;;;;;;23.35;61.04;99240.47;12150093;19;20039;-87
2022/07/25 06:43:59;;;;;;;12.30;9.52;;;;;;;23.60;60.44;99232.91;12217808;19;20021;-85
2022/07/25 06:54:17;;;;;;;13.55;10.30;;;;;;;24.17;58.41;99236.75;12202472;19;20017;-86
2022/07/25 07:04:37;;;;;;;12.50;9.27;;;;;;;24.75;56.96;99224.06;12220282;19;20009;-88
2022/07/25 07:09:25;;;;;;;13.82;9.20;;;;;;;25.03;56.51;99220.38;12191402;19;20027;-85
2022/07/25 07:13:27;;;;;;;13.05;9.35;;;;;;;25.26;56.04;99225.47;12202725;19;20081;-83
2022/07/25 07:17:29;;;;;;;16.37;10.50;;;;;;;25.54;55.17;99225.34;12199912;19;20027;-84
2022/07/25 07:21:31;;;;;;;15.60;9.47;;;;;;;25.82;54.19;99228.94;12179933;19;20010;-84
2022/07/25 07:25:33;;;;;;;11.07;9.02;;;;;;;26.16;53.73;99231.31;12191591;19;20472;-83
2022/07/25 07:29:34;;;;;;;15.18;9.07;;;;;;;26.40;52.99;99233.06;12204914;19;20018;-82
2022/07/25 07:33:38;;;;;;;12.27;9.52;;;;;;;26.62;52.44;99229.50;12182721;19;20076;-82
2022/07/25 07:37:40;;;;;;;14.70;9.30;;;;;;;26.86;51.63;99236.91;12210335;19;20010;-82
2022/07/25 07:41:44;;;;;;;15.23;9.95;;;;;;;27.13;51.61;99234.16;12215737;19;20347;-83
2022/07/25 07:45:46;;;;;;;12.98;9.90;;;;;;;27.37;50.03;99238.69;12189594;19;20010;-83
2022/07/25 07:49:47;;;;;;;15.73;9.93;;;;;;;27.65;50.01;99229.88;12212952;19;20015;-83
2022/07/25 07:58:14;;;;;;;13.07;10.18;;;;;;;28.06;48.26;99230.16;12181760;19;20517;-82
2022/07/25 08:02:16;;;;;;;12.32;9.80;;;;;;;28.40;47.35;99228.19;12213907;19;20063;-82
2022/07/25 08:06:18;;;;;;;14.15;9.50;;;;;;;28.73;46.71;99230.25;12191457;19;20124;-82
2022/07/25 08:10:21;;;;;;;12.63;9.90;;;;;;;29.07;46.36;99216.13;12206304;19;20006;-82
2022/07/25 08:14:23;;;;;;;12.63;9.60;;;;;;;29.32;45.31;99219.19;12217161;19;20638;-82
2022/07/25 08:18:28;;;;;;;15.45;10.20;;;;;;;29.64;44.77;99224.38;12240825;19;20015;-83
2022/07/25 08:22:44;;;;;;;10.82;9.70;;;;;;;29.96;42.41;99222.63;12240904;19;20014;-83
2022/07/25 08:26:46;;;;;;;12.85;9.55;;;;;;;30.19;41.51;99224.38;12219339;19;20011;-84
2022/07/25 08:30:48;;;;;;;11.93;9.10;;;;;;;30.42;41.57;99216.41;12196833;19;20030;-83
2022/07/25 08:34:50;;;;;;;10.52;8.93;;;;;;;30.71;41.65;99222.25;12222302;19;20599;-82
2022/07/25 08:38:52;;;;;;;12.95;9.88;;;;;;;30.96;41.38;99221.53;12221551;19;20346;-82
2022/07/25 08:42:55;;;;;;;11.07;9.70;;;;;;;31.15;39.59;99218.34;12193701;19;20406;-83
2022/07/25 08:46:58;;;;;;;12.60;9.93;;;;;;;31.46;39.52;99215.97;12210837;19;20017;-82
2022/07/25 08:51:01;;;;;;;10.65;9.55;;;;;;;31.74;39.21;99210.28;12210262;19;20010;-83
2022/07/25 08:55:13;;;;;;;13.13;10.02;;;;;;;32.02;38.46;99202.94;12215344;19;20014;-83
2022/07/25 08:59:15;;;;;;;12.80;9.88;;;;;;;32.10;37.87;99198.88;12211198;19;20006;-82
2022/07/25 09:03:17;;;;;;;11.90;9.10;;;;;;;32.34;37.64;99190.66;12176387;19;20536;-83
2022/07/25 09:07:35;;;;;;;13.30;10.25;;;;;;;32.68;37.17;99197.47;12208371;19;20369;-81
2022/07/25 09:11:37;;;;;;;14.32;9.77;;;;;;;32.79;37.06;99188.88;12198535;19;20030;-82
2022/07/25 09:15:55;;;;;;;11.00;9.77;;;;;;;32.97;36.49;99185.91;12193650;19;20011;-84
2022/07/25 09:19:57;;;;;;;14.32;10.07;;;;;;;33.16;36.01;99178.06;12214728;19;20013;-83
2022/07/25 09:24:08;;;;;;;;;;;;;;;33.38;35.32;99175.91;12212623;19;20030;-83
2022/07/25 09:28:12;;;;;;;13.07;9.25;;;;;;;33.51;34.51;99172.13;12187842;19;20246;-83
2022/07/25 09:32:19;;;;;;;11.32;9.73;;;;;;;33.69;34.89;99162.59;12205763;19;20006;-83
2022/07/25 09:36:20;;;;;;;11.35;9.85;;;;;;;33.78;34.38;99160.03;12183496;19;20000;-83
2022/07/25 09:40:22;;;;;;;;;;;;;;;33.69;34.13;99165.44;12207404;19;20019;-82
2022/07/25 09:44:31;;;;;;;12.52;10.23;;;;;;;33.71;34.20;99152.38;12214840;19;19917;-82
2022/07/25 09:48:33;;;;;;;16.88;9.82;;;;;;;34.00;33.85;99150.03;12190047;19;20018;-82
2022/07/25 09:52:37;;;;;;;11.18;10.02;;;;;;;34.26;33.33;99139.94;12213375;19;20022;-82
2022/07/25 09:56:38;;;;;;;12.80;9.65;;;;;;;34.82;33.14;99141.72;12206976;19;20023;-82
2022/07/25 10:00:41;;;;;;;;;;;;;;;35.37;31.08;99146.22;12191902;19;20077;-82
2022/07/25 10:04:48;;;;;;;10.82;9.65;;;;;;;35.55;30.67;99135.28;12199213;19;19911;-82
2022/07/25 10:08:50;;;;;;;13.52;10.23;;;;;;;35.77;30.77;99140.63;12192495;19;20062;-81
2022/07/25 10:13:09;;;;;;;11.02;9.95;;;;;;;35.70;30.52;99138.72;12184050;19;20007;-82
2022/07/25 10:17:19;;;;;;;12.20;10.73;;;;;;;36.12;29.65;99121.97;12206525;19;20010;-82
2022/07/25 10:21:28;;;;;;;11.75;10.55;;;;;;;35.83;29.51;99133.94;12188403;19;20643;-82
2022/07/25 10:26:02;;;;;;;13.77;10.20;;;;;;;35.89;29.55;99131.38;12209255;19;20488;-81
2022/07/25 10:30:22;;;;;;;11.07;9.98;;;;;;;36.07;29.51;99110.19;12178595;19;20019;-81
2022/07/25 10:34:32;;;;;;;12.52;10.35;;;;;;;36.15;28.98;99115.34;12197084;19;20361;-82
2022/07/25 10:38:34;;;;;;;12.63;10.40;;;;;;;36.24;28.94;99106.97;12203380;19;20040;-82
2022/07/25 10:42:35;;;;;;;;;;;;;;;36.49;29.22;99094.13;12185880;19;20023;-82
2022/07/25 10:46:37;;;;;;;13.50;11.30;;;;;;;36.66;28.79;99098.69;12199838;19;20432;-82
2022/07/25 10:50:51;;;;;;;12.95;9.50;;;;;;;36.70;27.95;99093.66;12210084;19;20411;-82
2022/07/25 10:54:59;;;;;;;9.93;8.93;;;;;;;36.99;27.15;99097.94;12190550;19;20006;-82
2022/07/25 10:59:01;;;;;;;11.07;10.00;;;;;;;37.16;26.90;99080.31;12205361;19;20006;-81
2022/07/25 11:03:03;;;;;;;12.00;8.90;;;;;;;37.34;26.24;99090.53;12191117;19;20006;-82
2022/07/25 11:07:14;;;;;;;12.35;9.70;;;;;;;37.78;25.65;99076.66;12199308;19;20009;-82
2022/07/25 11:11:16;;;;;;;11.82;10.20;;;;;;;37.69;25.96;99073.63;12211744;19;20374;-82
2022/07/25 11:15:22;;;;;;;10.02;8.98;;;;;;;37.30;25.96;99079.16;12191210;19;20043;-83
2022/07/25 11:19:27;;;;;;;9.05;8.15;;;;;;;37.59;25.57;99072.66;12224525;19;20469;-81
2022/07/25 11:23:29;;;;;;;10.77;9.77;;;;;;;37.39;25.58;99056.31;12220142;19;20011;-82
2022/07/25 11:27:32;;;;;;;12.25;9.77;;;;;;;37.04;26.50;99054.38;12187124;19;20066;-81
2022/07/25 11:31:34;;;;;;;10.63;9.60;;;;;;;37.05;26.85;99062.53;12213873;19;20030;-81
2022/07/25 11:35:37;;;;;;;11.15;9.23;;;;;;;37.21;26.52;99066.66;12218611;19;20028;-82
2022/07/25 11:39:41;;;;;;;11.13;9.98;;;;;;;37.30;26.49;99061.06;12186387;19;20023;-82
2022/07/25 11:43:47;;;;;;;10.98;9.40;;;;;;;37.40;26.04;99072.31;12207833;19;20010;-81
2022/07/25 11:48:10;;;;;;;10.85;9.15;;;;;;;37.52;26.28;99072.84;12204841;19;20018;-82
2022/07/25 11:52:24;;;;;;;10.88;9.50;;;;;;;37.76;26.12;99065.63;12188567;19;20007;-82
2022/07/25 11:56:25;;;;;;;10.13;9.23;;;;;;;37.97;26.00;99072.06;12214443;19;20023;-82
2022/07/25 12:00:47;;;;;;;10.90;9.68;;;;;;;38.56;25.73;99067.03;12190231;19;20003;-82
2022/07/25 12:04:57;;;;;;;10.48;9.43;;;;;;;38.30;25.40;99064.88;12209178;19;20410;-81
2022/07/25 12:09:09;;;;;;;10.48;9.45;;;;;;;37.58;26.22;99083.34;12204958;19;20014;-81
2022/07/25 12:13:29;;;;;;;13.05;9.60;;;;;;;36.43;28.15;99099.56;12185530;19;20023;-81
2022/07/25 12:17:32;;;;;;;12.27;9.75;;;;;;;35.72;29.58;99095.25;12214213;19;20114;-80
2022/07/25 12:21:35;;;;;;;10.77;9.68;;;;;;;36.23;28.88;99085.28;12186529;19;20476;-79
2022/07/25 12:25:42;;;;;;;9.98;8.75;;;;;;;37.38;27.45;99077.69;12207408;19;20011;-80
2022/07/25 12:29:44;;;;;;;10.57;9.00;;;;;;;38.52;25.88;99070.00;12208977;19;20002;-82
2022/07/25 12:33:47;;;;;;;16.63;7.55;;;;;;;39.48;23.62;99059.53;12176124;19;20031;-82
2022/07/25 12:37:50;;;;;;;12.05;6.43;;;;;;;40.44;22.76;99060.94;12209474;19;20029;-82
2022/07/25 12:41:52;;;;;;;8.65;6.80;;;;;;;40.97;21.41;99050.16;12204410;19;20015;-82
2022/07/25 12:45:54;;;;;;;7.57;6.28;;;;;;;41.57;21.42;99037.31;12190176;19;20011;-82
2022/07/25 12:49:56;;;;;;;9.35;6.75;;;;;;;41.12;21.16;99035.94;12204982;19;20508;-83
2022/07/25 12:53:58;;;;;;;9.25;6.35;;;;;;;40.14;21.70;99043.09;12214582;19;20039;-82
2022/07/25 12:57:59;;;;;;;8.13;6.90;;;;;;;38.91;22.77;99053.59;12193751;19;20579;-82
2022/07/25 13:02:01;;;;;;;7.53;6.38;;;;;;;37.80;24.03;99046.19;12209969;19;20002;-82
2022/07/25 13:06:03;;;;;;;9.15;7.28;;;;;;;37.70;24.93;99049.38;12198192;19;20018;-82
2022/07/25 13:10:06;;;;;;;8.32;7.45;;;;;;;37.93;24.48;99046.28;12216836;19;20070;-82
2022/07/25 13:14:08;;;;;;;9.15;7.32;;;;;;;37.88;24.83;99046.00;12213749;19;20015;-81
2022/07/25 13:18:10;;;;;;;10.73;7.65;;;;;;;37.83;24.56;99035.84;12177408;19;20082;-80
2022/07/25 13:22:12;;;;;;;8.20;7.40;;;;;;;38.02;24.94;99032.03;12216250;19;20069;-82
2022/07/25 13:26:13;;;;;;;9.15;7.90;;;;;;;38.78;23.64;99044.94;12216744;19;20014;-82
2022/07/25 13:30:15;;;;;;;8.48;7.25;;;;;;;38.76;23.74;99041.69;12201984;19;20035;-81
2022/07/25 13:34:18;;;;;;;9.07;8.18;;;;;;;37.84;24.78;99041.16;12210229;19;20006;-82
2022/07/25 13:38:20;;;;;;;7.63;6.90;;;;;;;37.75;24.50;99041.00;12213045;19;20353;-83
2022/07/25 13:42:22;;;;;;;10.93;7.95;;;;;;;36.92;25.09;99048.06;12192706;19;20051;-82
2022/07/25 13:46:25;;;;;;;8.95;8.05;;;;;;;36.63;25.50;99039.31;12206481;19;20014;-82
2022/07/25 13:50:27;;;;;;;8.45;6.97;;;;;;;36.27;25.53;99016.34;12207769;19;20090;-82
2022/07/25 13:54:29;;;;;;;8.38;7.50;;;;;;;35.96;25.97;99016.56;12191414;19;20424;-82
2022/07/25 13:58:31;;;;;;;8.55;7.65;;;;;;;36.02;26.19;99008.25;12200281;19;20014;-81
2022/07/25 14:02:33;;;;;;;11.65;8.15;;;;;;;35.95;26.10;99014.16;12205661;19;20006;-82
2022/07/25 14:06:35;;;;;;;9.63;8.70;;;;;;;35.89;26.22;99007.31;12192178;19;20476;-82
2022/07/25 14:10:36;;;;;;;11.07;7.78;;;;;;;36.00;26.46;99005.03;12199470;19;20010;-82
2022/07/25 14:14:39;;;;;;;9.80;8.80;;;;;;;37.31;25.73;98997.44;12196788;19;20422;-82
2022/07/25 14:18:41;;;;;;;9.38;8.48;;;;;;;38.71;24.77;98994.16;12194172;19;20093;-82
2022/07/25 14:22:43;;;;;;;9.98;8.32;;;;;;;39.50;23.78;98988.59;12201759;19;20809;-81
2022/07/25 14:26:44;;;;;;;12.20;7.93;;;;;;;39.20;22.74;98987.97;12208919;19;20018;-82
2022/07/25 14:30:46;;;;;;;8.05;7.10;;;;;;;38.58;23.04;99009.81;12185542;19;20002;-80
2022/07/25 14:34:48;;;;;;;14.80;8.68;;;;;;;38.79;24.92;98991.84;12212344;19;20010;-82
2022/07/25 14:38:50;;;;;;;8.35;7.40;;;;;;;39.57;24.84;98985.47;12211840;19;20010;-82
2022/07/25 14:42:52;;;;;;;9.32;7.80;;;;;;;39.15;25.36;98982.00;12174199;19;20018;-80
2022/07/25 14:46:57;;;;;;;10.13;8.20;;;;;;;38.01;26.34;98984.38;12204720;19;20083;-81
2022/07/25 14:50:59;;;;;;;8.77;7.75;;;;;;;38.39;26.51;98983.66;12200222;19;20007;-82
2022/07/25 14:55:01;;;;;;;10.85;7.72;;;;;;;38.97;25.79;98985.50;12172723;19;20105;-81
2022/07/25 14:59:04;;;;;;;10.18;7.82;;;;;;;38.58;26.49;98987.56;12202985;19;20010;-82
2022/07/25 15:03:07;;;;;;;9.13;8.10;;;;;;;38.17;26.47;98974.09;12193384;19;20007;-82
2022/07/25 15:07:08;;;;;;;8.70;7.72;;;;;;;38.12;26.48;98971.78;12199158;19;20082;-81
2022/07/25 15:11:10;;;;;;;8.88;7.93;;;;;;;38.23;26.17;98969.38;12210950;19;20014;-81
2022/07/25 15:15:12;;;;;;;10.88;8.07;;;;;;;37.25;26.84;98973.38;12181743;19;20078;-82
2022/07/25 15:19:14;;;;;;;13.93;8.57;;;;;;;36.57;27.76;98972.22;12193035;19;20034;-82
2022/07/25 15:23:27;;;;;;;14.57;8.02;;;;;;;36.05;28.07;98961.53;12196424;19;20003;-82
2022/07/25 15:27:31;;;;;;;10.98;8.10;;;;;;;35.74;28.90;98960.94;12170524;19;20018;-82
2022/07/25 15:31:32;;;;;;;9.88;8.15;;;;;;;35.45;29.02;98964.34;12204310;19;20014;-81
2022/07/25 15:35:34;;;;;;;11.45;8.48;;;;;;;35.41;29.43;98957.91;12198518;19;20014;-81
2022/07/25 15:39:36;;;;;;;10.30;8.30;;;;;;;35.27;29.59;98961.84;12188982;19;20016;-81
2022/07/25 15:43:38;;;;;;;13.45;8.27;;;;;;;35.31;29.85;98951.13;12204053;19;20610;-81
2022/07/25 15:47:41;;;;;;;9.48;7.78;;;;;;;35.18;30.34;98955.88;12209496;19;20014;-81
2022/07/25 15:51:48;;;;;;;10.60;7.82;;;;;;;35.02;29.62;98955.75;12173933;19;20010;-82
2022/07/25 15:55:49;;;;;;;10.82;8.57;;;;;;;34.97;29.37;98956.25;12199363;19;20454;-81
2022/07/25 15:59:51;;;;;;;;;;;;;;;34.75;29.79;98950.09;12220698;19;20017;-82
2022/07/25 16:03:58;;;;;;;10.27;8.13;;;;;;;34.44;29.95;98973.81;12196716;19;19920;-81
2022/07/25 16:08:00;;;;;;;11.30;8.18;;;;;;;34.31;30.75;98972.81;12224142;19;20471;-79
2022/07/25 16:12:02;;;;;;;11.70;7.75;;;;;;;34.34;30.13;98963.38;12211964;19;20534;-80
2022/07/25 16:16:04;;;;;;;8.82;7.45;;;;;;;34.39;29.82;98974.34;12188944;19;20003;-81
2022/07/25 16:20:08;;;;;;;8.20;7.38;;;;;;;34.28;29.63;98978.59;12209836;19;20027;-81
2022/07/25 16:24:10;;;;;;;10.88;7.03;;;;;;;33.84;29.51;98989.75;12180628;19;20367;-80
2022/07/25 16:28:11;;;;;;;14.25;7.20;;;;;;;33.65;29.87;98981.84;12203442;19;20046;-81
2022/07/25 16:32:14;;;;;;;8.40;6.95;;;;;;;33.48;30.23;98978.72;12213787;19;20376;-82
2022/07/25 16:36:17;;;;;;;10.52;6.70;;;;;;;33.39;30.58;98991.91;12191109;19;20086;-83
2022/07/25 16:40:19;;;;;;;9.57;7.15;;;;;;;33.13;30.73;99006.41;12220558;19;20010;-81
2022/07/25 16:44:24;;;;;;;7.90;6.20;;;;;;;32.91;31.14;99011.47;12211130;19;20021;-82
2022/07/25 16:48:25;;;;;;;13.15;6.82;;;;;;;32.73;31.11;99012.88;12186848;19;20016;-82
2022/07/25 16:52:27;;;;;;;;;;;;;;;32.73;31.03;99024.28;12213415;19;20019;-84
2022/07/25 16:56:29;;;;;;;10.52;6.10;;;;;;;32.60;30.55;99032.50;12206893;19;19992;-82
2022/07/25 17:00:30;;;;;;;9.57;5.80;;;;;;;32.44;29.99;99027.28;12186168;19;20082;-82
2022/07/25 17:04:32;;;;;;;10.65;5.38;;;;;;;32.39;29.37;99051.34;12203704;19;20007;-81
2022/07/25 17:08:35;;;;;;;7.13;5.20;;;;;;;32.31;29.71;99051.81;12214376;19;20346;-81
2022/07/25 17:12:36;;;;;;;8.90;5.38;;;;;;;32.18;29.73;99048.59;12186303;19;20013;-82
2022/07/25 17:16:39;;;;;;;;;;;;;;;32.03;29.33;99042.16;12194343;19;21382;-82
2022/07/25 17:20:41;;;;;;;11.65;6.32;;;;;;;31.92;29.78;99049.94;12215511;19;19962;-81
2022/07/25 17:24:43;;;;;;;5.78;4.97;;;;;;;31.89;29.56;99056.41;12181223;19;20027;-82
2022/07/25 17:28:45;;;;;;;7.57;4.75;;;;;;;31.82;29.55;99062.16;12201332;19;20085;-82
2022/07/25 17:32:47;;;;;;;9.35;5.50;;;;;;;31.73;30.05;99059.72;12205257;19;20454;-83
2022/07/25 17:36:48;;;;;;;6.90;4.72;;;;;;;31.58;30.21;99070.34;12184815;19;20074;-80
2022/07/25 17:40:50;;;;;;;8.65;4.90;;;;;;;31.29;30.88;99087.44;12203320;19;20151;-80
2022/07/25 17:44:52;;;;;;;11.30;4.30;;;;;;;31.03;31.61;99090.69;12213857;19;20050;-81
2022/07/25 17:48:53;;;;;;;7.25;4.35;;;;;;;30.80;31.95;99094.72;12186568;19;20071;-82
2022/07/25 17:52:58;;;;;;;12.32;3.58;;;;;;;30.54;32.39;99097.88;12208714;19;20021;-81
2022/07/25 17:56:59;;;;;;;5.60;3.47;;;;;;;30.34;32.45;99115.28;12210219;19;20011;-82
2022/07/25 18:01:01;;;;;;;7.15;2.97;;;;;;;30.13;32.60;99115.97;12181885;19;20099;-81
2022/07/25 18:05:10;;;;;;;4.53;2.80;;;;;;;29.85;32.74;99125.16;12203655;19;20014;-80
2022/07/25 18:09:12;;;;;;;9.02;2.80;;;;;;;29.65;33.26;99135.16;12184226;19;20007;-81
2022/07/25 18:13:16;;;;;;;4.60;3.00;;;;;;;29.58;32.91;99138.72;12209249;19;20010;-80
2022/07/25 18:17:19;;;;;;;7.15;2.88;;;;;;;29.35;33.85;99144.63;12208545;19;20042;-81
2022/07/25 18:21:22;;;;;;;8.30;2.40;;;;;;;29.22;33.59;99158.31;12192047;19;20015;-80
2022/07/25 18:25:24;;;;;;;7.32;2.40;;;;;;;29.16;34.06;99167.56;12215926;19;20015;-83
2022/07/25 18:29:26;;;;;;;5.68;2.58;;;;;;;29.08;34.62;99175.19;12213017;19;20371;-83
2022/07/25 18:33:28;;;;;;;3.40;2.42;;;;;;;29.03;34.87;99192.56;12197675;19;20875;-83
2022/07/25 18:37:34;;;;;;;3.90;2.13;;;;;;;28.79;34.68;99199.56;12212603;19;20014;-90
2022/07/25 18:41:36;;;;;;;5.30;1.90;;;;;;;28.57;35.09;99210.63;12210092;19;20023;-89
2022/07/25 18:45:38;;;;;;;7.45;2.15;;;;;;;28.34;35.44;99222.03;12193103;19;20429;-84
2022/07/25 18:49:40;;;;;;;7.03;1.63;;;;;;;28.22;35.17;99229.97;12208624;19;20014;-84
2022/07/25 18:53:51;;;;;;;14.23;3.00;;;;;;;28.00;35.35;99226.81;12206179;19;20003;-89
2022/07/25 18:57:57;;;;;;;9.00;2.25;;;;;;;27.85;35.63;99239.94;12194441;19;20010;-86
2022/07/25 19:01:59;;;;;;;7.53;1.77;;;;;;;27.66;36.15;99240.81;12214995;19;20019;-87
2022/07/25 19:06:10;;;;;;;4.70;1.50;;;;;;;27.54;35.92;99248.66;12217431;19;20018;-88
2022/07/25 19:10:28;;;;;;;9.10;1.60;;;;;;;27.30;36.60;99266.84;12182714;19;20032;-88
2022/07/25 19:14:43;;;;;;;9.98;1.85;;;;;;;27.17;36.96;99269.03;12220959;19;20010;-90
2022/07/25 19:18:58;;;;;;;5.25;1.27;;;;;;;27.04;36.85;99288.13;12142502;19;20018;-90